createdAt,value
2019-01-30T00:02:29.648Z,17.48
2019-01-30T00:04:59.740Z,18.27
2019-01-30T00:07:29.869Z,17.45
2019-01-30T00:09:59.972Z,18.25
2019-01-30T00:12:30.143Z,20.10
2019-01-30T00:15:00.323Z,19.77
2019-01-30T00:17:30.428Z,19.85
2019-01-30T00:20:00.649Z,21.23
2019-01-30T00:22:30.914Z,19.25
2019-01-30T00:25:01.011Z,20.15
2019-01-30T00:27:31.119Z,20.82
2019-01-30T00:30:04.233Z,21.15
2019-01-30T00:32:33.040Z,19.87
2019-01-30T00:35:03.131Z,19.00
2019-01-30T00:37:33.239Z,19.50
2019-01-30T00:40:08.218Z,20.65
2019-01-30T00:42:38.416Z,19.90
2019-01-30T00:45:13.057Z,19.45
2019-01-30T00:47:43.166Z,20.85
2019-01-30T00:50:16.369Z,19.05
2019-01-30T00:52:46.476Z,20.90
2019-01-30T00:55:16.569Z,20.37
2019-01-30T00:57:46.677Z,19.42
2019-01-30T01:00:21.432Z,21.23
2019-01-30T01:02:51.575Z,20.30
2019-01-30T01:05:21.666Z,20.00
2019-01-30T01:07:51.775Z,25.02
2019-01-30T01:10:22.332Z,23.12
2019-01-30T01:12:52.547Z,21.50
2019-01-30T01:15:22.614Z,21.35
2019-01-30T01:17:52.718Z,22.27
2019-01-30T01:20:23.372Z,23.73
2019-01-30T01:22:53.553Z,23.95
2019-01-30T01:25:23.651Z,24.02
2019-01-30T01:28:13.221Z,25.20
2019-01-30T01:30:43.313Z,23.27
2019-01-30T01:33:13.464Z,23.85
2019-01-30T01:35:43.552Z,24.80
2019-01-30T01:38:13.658Z,25.37
2019-01-30T01:40:43.749Z,24.75
2019-01-30T01:43:33.290Z,23.90
2019-01-30T01:46:03.381Z,21.90
2019-01-30T01:48:33.489Z,23.20
2019-01-30T01:51:03.576Z,21.27
2019-01-30T01:53:34.835Z,21.35
2019-01-30T01:56:04.988Z,21.70
2019-01-30T01:58:35.103Z,20.48
2019-01-30T02:01:05.192Z,22.22
2019-01-30T02:03:35.366Z,22.93
2019-01-30T02:06:07.072Z,22.00
2019-01-30T02:08:37.181Z,20.68
2019-01-30T02:11:07.269Z,21.60
2019-01-30T02:13:37.376Z,21.37
2019-01-30T02:16:07.473Z,21.95
2019-01-30T02:18:38.543Z,21.20
2019-01-30T02:21:08.631Z,20.90
2019-01-30T02:23:38.735Z,20.15
2019-01-30T02:26:08.825Z,21.57
2019-01-30T02:28:38.932Z,21.87
2019-01-30T02:31:09.020Z,20.68
2019-01-30T02:33:39.129Z,21.93
2019-01-30T02:36:09.218Z,21.77
2019-01-30T02:38:39.328Z,22.42
2019-01-30T02:41:09.423Z,20.45
2019-01-30T02:43:39.529Z,21.90
2019-01-30T02:46:09.729Z,21.00
2019-01-30T02:48:39.836Z,20.10
2019-01-30T02:51:09.926Z,20.02
2019-01-30T02:53:40.043Z,20.52
2019-01-30T02:56:10.132Z,20.60
2019-01-30T02:58:40.241Z,21.10
2019-01-30T03:01:10.331Z,21.25
2019-01-30T03:03:40.442Z,20.97
2019-01-30T03:06:10.534Z,19.23
2019-01-30T03:08:40.652Z,20.30
2019-01-30T03:11:10.741Z,19.87
2019-01-30T03:13:40.860Z,22.20
2019-01-30T03:16:11.053Z,19.92
2019-01-30T03:18:41.169Z,20.75
2019-01-30T03:21:11.297Z,20.72
2019-01-30T03:23:41.408Z,20.55
2019-01-30T03:26:11.524Z,20.57
2019-01-30T03:28:41.621Z,21.65
2019-01-30T03:31:17.645Z,21.15
2019-01-30T03:33:43.521Z,22.10
2019-01-30T03:36:13.656Z,21.45
2019-01-30T03:38:43.749Z,20.82
2019-01-30T03:41:26.191Z,20.57
2019-01-30T03:43:56.275Z,19.77
2019-01-30T03:46:26.385Z,20.43
2019-01-30T03:48:56.477Z,20.40
2019-01-30T03:51:26.584Z,21.37
2019-01-30T03:53:56.679Z,22.00
2019-01-30T03:56:26.791Z,20.25
2019-01-30T03:58:56.882Z,20.17
2019-01-30T04:01:27.139Z,20.32
2019-01-30T04:03:57.231Z,20.45
2019-01-30T04:06:27.346Z,20.72
2019-01-30T04:08:57.439Z,20.12
2019-01-30T04:11:27.544Z,19.82
2019-01-30T04:13:57.632Z,20.27
2019-01-30T04:16:27.735Z,20.43
2019-01-30T04:18:57.844Z,18.85
2019-01-30T04:21:27.942Z,20.08
2019-01-30T04:23:58.053Z,20.00
2019-01-30T04:26:28.141Z,19.80
2019-01-30T04:28:58.248Z,19.10
2019-01-30T04:31:37.950Z,18.57
2019-01-30T04:34:00.325Z,17.98
2019-01-30T04:36:30.413Z,18.98
2019-01-30T04:39:00.529Z,18.70
2019-01-30T04:41:30.617Z,17.07
2019-01-30T04:44:00.726Z,18.40
2019-01-30T04:46:30.815Z,18.05
2019-01-30T04:49:00.922Z,17.57
2019-01-30T04:51:31.108Z,17.60
2019-01-30T04:54:01.196Z,17.07
2019-01-30T04:56:31.281Z,16.87
2019-01-30T04:59:02.356Z,15.48
2019-01-30T05:01:32.451Z,16.40
2019-01-30T05:04:02.557Z,16.27
2019-01-30T05:06:32.647Z,16.80
2019-01-30T05:09:02.760Z,17.17
2019-01-30T05:11:53.353Z,16.95
2019-01-30T05:14:23.462Z,17.20
2019-01-30T05:16:53.729Z,17.32
2019-01-30T05:19:23.840Z,16.57
2019-01-30T05:21:53.930Z,17.62
2019-01-30T05:24:24.045Z,17.00
2019-01-30T05:26:54.133Z,17.15
2019-01-30T05:29:24.245Z,17.48
2019-01-30T05:32:00.872Z,17.70
2019-01-30T05:34:27.109Z,17.07
2019-01-30T05:36:57.194Z,16.48
2019-01-30T05:39:27.300Z,17.15
2019-01-30T05:41:57.457Z,16.48
2019-01-30T05:44:27.581Z,17.35
2019-01-30T05:47:17.096Z,16.80
2019-01-30T05:49:49.903Z,17.77
2019-01-30T05:52:19.984Z,16.75
2019-01-30T05:54:50.199Z,17.07
2019-01-30T05:57:23.096Z,17.25
2019-01-30T05:59:53.275Z,15.68
2019-01-30T06:02:23.444Z,16.40
2019-01-30T06:04:53.680Z,15.45
2019-01-30T06:07:23.749Z,16.37
2019-01-30T06:09:53.898Z,17.77
2019-01-30T06:12:24.002Z,17.07
2019-01-30T06:14:54.102Z,16.75
2019-01-30T06:17:24.184Z,16.70
2019-01-30T06:19:54.422Z,17.82
2019-01-30T06:22:24.508Z,16.60
2019-01-30T06:24:54.787Z,15.43
2019-01-30T06:27:24.920Z,16.05
2019-01-30T06:29:55.137Z,15.18
2019-01-30T06:32:25.205Z,16.87
2019-01-30T06:34:56.718Z,16.15
2019-01-30T06:37:26.949Z,16.50
2019-01-30T06:39:57.020Z,15.72
2019-01-30T06:42:27.125Z,16.05
2019-01-30T06:44:57.213Z,15.40
2019-01-30T06:47:27.320Z,16.12
2019-01-30T06:49:57.411Z,15.35
2019-01-30T06:52:27.520Z,17.02
2019-01-30T06:54:57.653Z,17.75
2019-01-30T06:57:27.753Z,15.48
2019-01-30T06:59:57.971Z,15.45
2019-01-30T07:02:32.394Z,15.90
2019-01-30T07:04:59.840Z,15.95
2019-01-30T07:07:30.459Z,15.78
2019-01-30T07:10:00.576Z,15.32
2019-01-30T07:12:30.631Z,13.88
2019-01-30T07:15:00.759Z,14.95
2019-01-30T07:17:31.029Z,14.50
2019-01-30T07:20:01.107Z,15.55
2019-01-30T07:22:31.217Z,15.35
2019-01-30T07:25:01.306Z,15.70
2019-01-30T07:27:31.422Z,15.90
2019-01-30T07:30:01.516Z,15.13
2019-01-30T07:32:31.628Z,15.00
2019-01-30T07:35:01.712Z,15.30
2019-01-30T07:37:31.823Z,16.12
2019-01-30T07:40:01.949Z,15.13
2019-01-30T07:42:32.059Z,14.70
2019-01-30T07:45:02.146Z,13.35
2019-01-30T07:47:32.248Z,14.33
2019-01-30T07:50:02.336Z,14.75
2019-01-30T07:52:32.848Z,13.80
2019-01-30T07:55:03.001Z,13.60
2019-01-30T07:57:33.110Z,12.58
2019-01-30T08:00:03.664Z,13.78
2019-01-30T08:02:33.773Z,13.30
2019-01-30T08:05:05.578Z,13.80
2019-01-30T08:07:35.675Z,13.22
2019-01-30T08:10:13.329Z,12.55
2019-01-30T08:12:43.448Z,12.40
2019-01-30T08:15:21.682Z,13.20
2019-01-30T08:17:51.779Z,12.85
2019-01-30T08:20:22.863Z,12.53
2019-01-30T08:22:53.054Z,13.13
2019-01-30T08:25:23.868Z,12.68
2019-01-30T08:27:54.346Z,13.00
2019-01-30T08:30:30.068Z,12.55
2019-01-30T08:33:04.627Z,11.18
2019-01-30T08:35:32.462Z,11.12
2019-01-30T08:38:02.695Z,12.10
2019-01-30T08:40:32.841Z,10.95
2019-01-30T08:43:06.019Z,11.55
2019-01-30T08:45:36.094Z,11.08
2019-01-30T08:48:06.269Z,11.38
2019-01-30T08:50:36.343Z,11.22
2019-01-30T08:53:09.665Z,10.60
2019-01-30T08:55:39.824Z,11.45
2019-01-30T08:58:13.010Z,13.05
2019-01-30T09:00:43.090Z,11.93
2019-01-30T09:03:15.043Z,11.50
2019-01-30T09:05:44.962Z,11.73
2019-01-30T09:08:15.063Z,12.73
2019-01-30T09:10:45.138Z,11.97
2019-01-30T09:13:15.285Z,12.25
2019-01-30T09:15:45.357Z,11.65
2019-01-30T09:18:15.560Z,12.63
2019-01-30T09:20:45.620Z,11.40
2019-01-30T09:23:15.713Z,12.25
2019-01-30T09:25:45.790Z,10.75
2019-01-30T09:28:15.895Z,12.50
2019-01-30T09:30:46.006Z,10.60
2019-01-30T09:33:25.618Z,11.03
2019-01-30T09:35:47.888Z,11.53
2019-01-30T09:38:17.993Z,12.35
2019-01-30T09:40:48.084Z,11.40
2019-01-30T09:43:18.233Z,11.08
2019-01-30T09:45:48.295Z,10.82
2019-01-30T09:48:18.434Z,11.95
2019-01-30T09:50:48.543Z,11.85
2019-01-30T09:53:20.366Z,11.30
2019-01-30T09:56:03.079Z,12.90
2019-01-30T09:58:33.184Z,11.43
2019-01-30T10:01:03.277Z,11.22
2019-01-30T10:03:36.488Z,11.10
2019-01-30T10:06:05.193Z,11.83
2019-01-30T10:08:35.342Z,10.95
2019-01-30T10:11:05.426Z,11.53
2019-01-30T10:13:37.385Z,11.48
2019-01-30T10:16:07.320Z,11.00
2019-01-30T10:18:37.854Z,10.93
2019-01-30T10:21:08.018Z,10.50
2019-01-30T10:23:38.134Z,10.93
2019-01-30T10:26:08.262Z,10.45
2019-01-30T10:28:38.326Z,10.08
2019-01-30T10:31:08.406Z,10.80
2019-01-30T10:33:46.352Z,10.32
2019-01-30T10:36:10.330Z,10.93
2019-01-30T10:38:40.479Z,9.80
2019-01-30T10:41:10.517Z,10.13
2019-01-30T10:43:40.626Z,9.85
2019-01-30T10:46:10.715Z,9.88
2019-01-30T10:48:40.821Z,10.53
2019-01-30T10:51:11.002Z,11.08
2019-01-30T10:53:41.111Z,9.78
2019-01-30T10:56:11.195Z,9.90
2019-01-30T10:58:41.301Z,11.03
2019-01-30T11:01:11.394Z,10.08
2019-01-30T11:03:41.500Z,10.30
2019-01-30T11:06:11.590Z,10.32
2019-01-30T11:08:41.705Z,10.60
2019-01-30T11:11:11.787Z,9.68
2019-01-30T11:13:41.897Z,10.40
2019-01-30T11:16:11.983Z,10.25
2019-01-30T11:18:42.585Z,9.60
2019-01-30T11:21:12.668Z,10.35
2019-01-30T11:23:42.771Z,8.93
2019-01-30T11:26:12.855Z,9.60
2019-01-30T11:28:42.967Z,9.18
2019-01-30T11:31:13.052Z,8.83
2019-01-30T11:33:43.151Z,9.18
2019-01-30T11:36:13.225Z,9.08
2019-01-30T11:38:43.327Z,9.18
2019-01-30T11:41:13.409Z,8.88
2019-01-30T11:43:43.496Z,8.78
2019-01-30T11:46:13.593Z,9.80
2019-01-30T11:48:43.670Z,9.00
2019-01-30T11:51:15.421Z,9.80
2019-01-30T11:53:45.492Z,8.60
2019-01-30T11:56:15.594Z,9.00
2019-01-30T11:58:45.666Z,9.08
2019-01-30T12:01:15.911Z,8.90
2019-01-30T12:03:45.995Z,9.18
2019-01-30T12:06:16.063Z,8.55
2019-01-30T12:08:46.153Z,8.60
2019-01-30T12:11:16.227Z,9.70
2019-01-30T12:13:46.316Z,8.58
2019-01-30T12:16:16.761Z,9.98
2019-01-30T12:18:46.855Z,9.73
2019-01-30T12:21:16.929Z,9.10
2019-01-30T12:23:47.098Z,9.63
2019-01-30T12:26:17.174Z,10.53
2019-01-30T12:28:47.271Z,10.00
2019-01-30T12:31:17.711Z,9.88
2019-01-30T12:33:48.783Z,11.25
2019-01-30T12:36:18.858Z,11.10
2019-01-30T12:38:48.961Z,10.60
2019-01-30T12:41:19.043Z,10.10
2019-01-30T12:43:49.137Z,10.23
2019-01-30T12:46:19.215Z,11.25
2019-01-30T12:48:49.330Z,11.38
2019-01-30T12:51:19.405Z,11.85
2019-01-30T12:53:49.510Z,11.38
2019-01-30T12:56:19.585Z,11.20
2019-01-30T12:58:49.686Z,11.25
2019-01-30T13:01:19.847Z,11.65
2019-01-30T13:03:49.953Z,12.15
2019-01-30T13:06:20.031Z,11.78
2019-01-30T13:08:50.164Z,11.20
2019-01-30T13:11:20.255Z,12.18
2019-01-30T13:13:50.359Z,12.20
2019-01-30T13:16:20.437Z,11.93
2019-01-30T13:18:50.554Z,12.98
2019-01-30T13:21:20.634Z,13.45
2019-01-30T13:23:50.740Z,12.68
2019-01-30T13:26:20.812Z,13.25
2019-01-30T13:28:50.914Z,14.20
2019-01-30T13:31:20.994Z,12.88
2019-01-30T13:33:51.111Z,14.75
2019-01-30T13:36:21.188Z,15.43
2019-01-30T13:38:51.295Z,17.27
2019-01-30T13:41:21.370Z,14.78
2019-01-30T13:43:51.476Z,15.35
2019-01-30T13:46:21.555Z,16.02
2019-01-30T13:48:51.693Z,15.53
2019-01-30T13:51:21.738Z,16.80
2019-01-30T13:53:51.846Z,16.27
2019-01-30T13:56:21.922Z,16.60
2019-01-30T13:58:52.033Z,16.77
2019-01-30T14:01:22.104Z,17.00
2019-01-30T14:03:52.236Z,17.70
2019-01-30T14:06:22.416Z,17.37
2019-01-30T14:08:52.580Z,16.82
2019-01-30T14:11:22.654Z,18.62
2019-01-30T14:13:53.732Z,20.02
2019-01-30T14:16:23.811Z,18.52
2019-01-30T14:18:53.969Z,18.30
2019-01-30T14:21:24.034Z,18.77
2019-01-30T14:23:54.107Z,18.00
2019-01-30T14:26:24.224Z,18.10
2019-01-30T14:28:54.306Z,20.10
2019-01-30T14:31:24.378Z,18.87
2019-01-30T14:33:54.584Z,19.12
2019-01-30T14:36:24.681Z,19.90
2019-01-30T14:38:54.789Z,19.77
2019-01-30T14:41:24.914Z,20.25
2019-01-30T14:43:55.051Z,19.10
2019-01-30T14:46:25.238Z,19.12
2019-01-30T14:48:55.341Z,19.05
2019-01-30T14:51:25.424Z,18.85
2019-01-30T14:53:55.568Z,19.52
2019-01-30T14:56:25.657Z,19.12
2019-01-30T14:58:55.820Z,20.35
2019-01-30T15:01:26.010Z,18.52
2019-01-30T15:03:56.150Z,20.37
2019-01-30T15:06:26.201Z,19.75
2019-01-30T15:08:56.359Z,18.80
2019-01-30T15:11:26.435Z,17.62
2019-01-30T15:13:56.585Z,18.48
2019-01-30T15:16:26.688Z,17.50
2019-01-30T15:18:56.925Z,18.95
2019-01-30T15:21:27.082Z,18.73
2019-01-30T15:23:57.223Z,18.42
2019-01-30T15:26:27.367Z,17.80
2019-01-30T15:28:57.503Z,14.50
2019-01-30T15:31:27.715Z,17.30
2019-01-30T15:33:57.820Z,16.17
2019-01-30T15:36:27.969Z,16.37
2019-01-30T15:38:58.087Z,16.85
2019-01-30T15:41:28.746Z,15.58
2019-01-30T15:43:58.868Z,14.55
2019-01-30T15:46:28.949Z,16.82
2019-01-30T15:48:59.050Z,16.27
2019-01-30T15:51:29.169Z,14.40
2019-01-30T15:53:59.274Z,15.05
2019-01-30T15:56:29.351Z,14.75
2019-01-30T15:58:59.460Z,15.35
2019-01-30T16:01:29.539Z,13.60
2019-01-30T16:03:59.652Z,13.35
2019-01-30T16:06:29.731Z,13.50
2019-01-30T16:08:59.835Z,13.65
2019-01-30T16:11:29.992Z,14.58
2019-01-30T16:14:00.173Z,14.07
2019-01-30T16:16:31.730Z,14.80
2019-01-30T16:19:01.843Z,15.18
2019-01-30T16:21:31.959Z,13.85
2019-01-30T16:24:02.173Z,14.60
2019-01-30T16:26:32.373Z,13.75
2019-01-30T16:29:02.486Z,13.45
2019-01-30T16:31:33.755Z,13.98
2019-01-30T16:34:04.189Z,14.80
2019-01-30T16:36:35.888Z,14.18
2019-01-30T16:39:08.531Z,13.28
2019-01-30T16:41:38.606Z,13.53
2019-01-30T16:44:08.706Z,13.50
2019-01-30T16:46:38.810Z,12.60
2019-01-30T16:49:08.880Z,13.85
2019-01-30T16:51:38.981Z,12.88
2019-01-30T16:54:09.057Z,13.35
2019-01-30T16:56:39.198Z,12.93
2019-01-30T16:59:09.277Z,12.23
2019-01-30T17:01:39.396Z,13.20
2019-01-30T17:04:09.578Z,12.78
2019-01-30T17:06:39.844Z,12.33
2019-01-30T17:09:09.924Z,12.98
2019-01-30T17:11:40.035Z,12.68
2019-01-30T17:14:10.383Z,12.53
2019-01-30T17:16:40.564Z,12.82
2019-01-30T17:19:10.632Z,12.40
2019-01-30T17:21:40.811Z,12.98
2019-01-30T17:24:10.889Z,12.35
2019-01-30T17:26:40.990Z,12.82
2019-01-30T17:29:11.065Z,11.53
2019-01-30T17:31:41.169Z,13.28
2019-01-30T17:34:11.293Z,12.50
2019-01-30T17:36:41.396Z,13.15
2019-01-30T17:39:11.478Z,13.32
2019-01-30T17:41:41.587Z,14.13
2019-01-30T17:44:12.886Z,13.98
2019-01-30T17:46:43.152Z,12.47
2019-01-30T17:49:13.233Z,11.68
2019-01-30T17:51:43.329Z,14.15
2019-01-30T17:54:13.410Z,13.48
2019-01-30T17:56:44.501Z,14.15
2019-01-30T17:59:14.583Z,13.62
2019-01-30T18:01:44.685Z,14.00
2019-01-30T18:04:14.867Z,13.60
2019-01-30T18:06:44.966Z,11.95
2019-01-30T18:09:15.047Z,13.28
2019-01-30T18:11:45.154Z,11.33
2019-01-30T18:14:15.225Z,15.30
2019-01-30T18:16:45.418Z,14.58
2019-01-30T18:19:15.493Z,14.18
2019-01-30T18:21:45.593Z,15.30
2019-01-30T18:24:15.671Z,14.98
2019-01-30T18:26:45.780Z,14.87
2019-01-30T18:29:15.864Z,14.10
2019-01-30T18:31:45.964Z,15.90
2019-01-30T18:34:16.043Z,16.30
2019-01-30T18:36:46.146Z,14.93
2019-01-30T18:39:16.231Z,15.05
2019-01-30T18:41:46.334Z,16.12
2019-01-30T18:44:16.416Z,16.65
2019-01-30T18:46:59.319Z,16.48
2019-01-30T18:49:29.392Z,16.55
2019-01-30T18:51:59.546Z,18.02
2019-01-30T18:54:32.555Z,16.30
2019-01-30T18:57:03.259Z,16.87
2019-01-30T18:59:33.418Z,17.80
2019-01-30T19:02:03.525Z,17.60
2019-01-30T19:04:33.654Z,18.57
2019-01-30T19:07:03.766Z,19.10
2019-01-30T19:09:33.842Z,18.05
2019-01-30T19:12:03.946Z,19.90
2019-01-30T19:14:34.027Z,18.45
2019-01-30T19:17:04.136Z,18.45
2019-01-30T19:19:35.376Z,18.12
2019-01-30T19:22:06.028Z,19.35
2019-01-30T19:24:36.106Z,20.90
2019-01-30T19:27:06.276Z,19.25
2019-01-30T19:29:36.474Z,18.65
2019-01-30T19:32:06.583Z,19.82
2019-01-30T19:34:36.661Z,21.48
2019-01-30T19:37:07.743Z,21.05
2019-01-30T19:39:37.815Z,19.17
2019-01-30T19:42:07.957Z,19.35
2019-01-30T19:44:38.122Z,20.40
2019-01-30T19:47:08.352Z,22.82
2019-01-30T19:49:38.380Z,21.50
2019-01-30T19:52:08.491Z,21.50
2019-01-30T19:54:38.575Z,22.98
2019-01-30T19:57:08.681Z,23.52
2019-01-30T19:59:39.835Z,22.10
2019-01-30T20:02:11.012Z,23.62
2019-01-30T20:04:41.121Z,22.85
2019-01-30T20:07:14.914Z,24.20
2019-01-30T20:09:44.983Z,23.77
2019-01-30T20:12:14.902Z,23.07
2019-01-30T20:14:44.979Z,23.77
2019-01-30T20:17:15.088Z,23.85
2019-01-30T20:19:45.167Z,24.55
2019-01-30T20:22:15.276Z,26.05
2019-01-30T20:24:45.353Z,26.37
2019-01-30T20:27:15.471Z,26.00
2019-01-30T20:29:45.552Z,26.50
2019-01-30T20:32:15.664Z,25.77
2019-01-30T20:34:45.738Z,26.12
2019-01-30T20:37:25.892Z,26.35
2019-01-30T20:39:47.624Z,25.52
2019-01-30T20:42:17.732Z,26.35
2019-01-30T20:44:47.825Z,26.57
2019-01-30T20:47:17.999Z,26.70
2019-01-30T20:49:50.629Z,28.42
2019-01-30T20:52:19.888Z,27.82
2019-01-30T20:54:59.703Z,28.83
2019-01-30T20:57:21.793Z,27.48
2019-01-30T20:59:51.884Z,27.98
2019-01-30T21:02:33.932Z,27.95
2019-01-30T21:05:05.751Z,29.12
2019-01-30T21:07:37.324Z,28.23
2019-01-30T21:10:20.679Z,28.92
2019-01-30T21:12:50.785Z,29.25
2019-01-30T21:15:21.337Z,29.48
2019-01-30T21:17:51.441Z,28.57
2019-01-30T21:20:21.523Z,28.70
2019-01-30T21:22:51.697Z,29.23
2019-01-30T21:25:22.923Z,30.25
2019-01-30T21:27:54.864Z,30.68
2019-01-30T21:30:34.388Z,30.15
2019-01-30T21:33:04.561Z,29.12
2019-01-30T21:35:34.646Z,30.15
2019-01-30T21:38:05.025Z,31.10
2019-01-30T21:40:35.101Z,29.82
2019-01-30T21:43:05.226Z,30.50
2019-01-30T21:45:35.294Z,30.68
2019-01-30T21:48:05.741Z,30.95
2019-01-30T21:50:35.824Z,29.15
2019-01-30T21:53:05.945Z,30.70
2019-01-30T21:55:36.032Z,31.52
2019-01-30T21:58:06.309Z,32.58
2019-01-30T22:00:36.473Z,30.70
2019-01-30T22:03:06.583Z,32.20
2019-01-30T22:05:36.662Z,32.10
2019-01-30T22:08:06.780Z,30.95
2019-01-30T22:10:36.882Z,31.45
2019-01-30T22:13:06.965Z,30.37
2019-01-30T22:15:37.047Z,32.48
2019-01-30T22:18:07.434Z,33.67
2019-01-30T22:20:37.503Z,32.78
2019-01-30T22:23:07.602Z,33.02
2019-01-30T22:25:40.086Z,31.90
2019-01-30T22:28:10.187Z,30.75
2019-01-30T22:30:40.345Z,33.75
2019-01-30T22:33:10.522Z,32.70
2019-01-30T22:35:40.692Z,32.95
2019-01-30T22:38:12.517Z,32.93
2019-01-30T22:40:42.620Z,33.58
2019-01-30T22:43:12.770Z,33.25
2019-01-30T22:45:43.901Z,34.30
2019-01-30T22:48:14.005Z,32.45
2019-01-30T22:50:44.085Z,31.82
2019-01-30T22:53:15.185Z,34.23
2019-01-30T22:55:45.267Z,34.30
2019-01-30T22:58:15.462Z,34.00
2019-01-30T23:01:10.841Z,34.13
2019-01-30T23:03:48.419Z,33.85
2019-01-30T23:06:35.434Z,34.60
2019-01-30T23:09:24.670Z,32.83
2019-01-30T23:12:17.585Z,32.33
2019-01-30T23:15:15.450Z,34.43
2019-01-30T23:18:21.684Z,34.60
2019-01-30T23:20:56.759Z,33.88
2019-01-30T23:23:34.469Z,34.70
2019-01-30T23:26:12.094Z,33.63
2019-01-30T23:29:15.898Z,33.95
2019-01-30T23:31:53.326Z,34.38
2019-01-30T23:34:34.337Z,34.40
2019-01-30T23:37:37.839Z,35.00
2019-01-30T23:40:33.351Z,33.35
2019-01-30T23:43:40.759Z,33.05
2019-01-30T23:46:30.353Z,33.40
2019-01-30T23:49:45.627Z,34.67
2019-01-30T23:52:49.122Z,35.28
2019-01-30T23:55:40.384Z,32.50
